This is the latest recevied weather packets stored in our database for station/object KA3RQR. If no packets are shown the sender has not sent any weather packets the latest 10 day(s).
| Time | Temp. | Humidity | Pressure | Rain* | Wind** | Luminosity | Snow |
|---|---|---|---|---|---|---|---|
| 1777893782 | 10° C | 64% | 1015.4 hPa | 0 mm | - | 42 W/m² | - |
| 1777893478 | 10° C | 66% | 1015.5 hPa | 0 mm | - | 34 W/m² | - |
| 1777893175 | 10° C | 65% | 1015.3 hPa | 0 mm | - | 40 W/m² | - |
| 1777892871 | 9.44° C | 66% | 1015.4 hPa | 0 mm | - | 34 W/m² | - |
| 1777892568 | 9.44° C | 66% | 1015.4 hPa | 0 mm | - | 28 W/m² | - |
| 1777891658 | 8.89° C | 68% | 1015.2 hPa | 0 mm | - | 21 W/m² | - |
| 1777891050 | 8.33° C | 70% | 1014.9 hPa | 0 mm | - | 12 W/m² | - |
| 1777890750 | 8.33° C | 73% | 1014.9 hPa | 0 mm | - | 9 W/m² | - |
| 1777890445 | 7.78° C | 73% | 1015 hPa | 0 mm | - | 6 W/m² | - |
| 1777890142 | 7.78° C | 73% | 1015.1 hPa | 0 mm | - | 3 W/m² | - |
| 1777889838 | 7.78° C | 73% | 1015.3 hPa | 0 mm | - | 2 W/m² | - |
| 1777889536 | 8.33° C | 71% | 1015 hPa | 0 mm | - | 0 W/m² | - |
| 1777889233 | 8.89° C | 70% | 1015.3 hPa | 0 mm | - | 0 W/m² | - |
| 1777888628 | 9.44° C | 67% | 1015.1 hPa | 0 mm | - | 0 W/m² | - |
| 1777888324 | 9.44° C | 67% | 1015.3 hPa | 0 mm | - | 0 W/m² | - |
| 1777888021 | 10° C | 66% | 1015.4 hPa | 0 mm | - | 0 W/m² | - |
| 1777887414 | 10° C | 64% | 1015.2 hPa | 0 mm | - | 0 W/m² | - |
| 1777887109 | 10° C | 65% | 1015.3 hPa | 0 mm | - | 0 W/m² | - |
| 1777886805 | 10° C | 64% | 1015.4 hPa | 0 mm | - | 0 W/m² | - |
| 1777886502 | 10° C | 66% | 1015.2 hPa | 0 mm | - | 0 W/m² | - |
| 1777886200 | 10° C | 65% | 1015.5 hPa | 0 mm | - | 0 W/m² | - |
| 1777885897 | 10° C | 65% | 1015.3 hPa | 0 mm | - | 0 W/m² | - |
| 1777885596 | 10° C | 65% | 1015.2 hPa | 0 mm | - | 0 W/m² | - |
| 1777885294 | 10° C | 65% | 1015.2 hPa | 0 mm | - | 0 W/m² | - |
| 1777884992 | 10° C | 65% | 1015.5 hPa | 0 mm | - | 0 W/m² | - |
* Rain latest hour (hover to see other rain measurements)
** Current wind speed in m/s (hover to see current wind gust speed)